createdAt,value
2017-11-28T00:02:10.040Z,58.50
2017-11-28T00:04:37.587Z,58.70
2017-11-28T00:07:05.985Z,58.80
2017-11-28T00:09:34.432Z,58.80
2017-11-28T00:12:02.708Z,59.00
2017-11-28T00:14:31.007Z,58.80
2017-11-28T00:16:59.309Z,58.60
2017-11-28T00:19:28.715Z,58.60
2017-11-28T00:21:56.227Z,58.50
2017-11-28T00:24:24.538Z,58.70
2017-11-28T00:26:52.827Z,58.50
2017-11-28T00:29:21.959Z,58.60
2017-11-28T00:31:50.751Z,59.00
2017-11-28T00:34:19.969Z,57.80
2017-11-28T00:36:47.503Z,57.60
2017-11-28T00:39:15.819Z,56.70
2017-11-28T00:41:44.571Z,56.90
2017-11-28T00:44:12.507Z,57.30
2017-11-28T00:46:40.783Z,57.60
2017-11-28T00:49:09.071Z,57.90
2017-11-28T00:51:37.637Z,57.50
2017-11-28T00:54:05.931Z,56.70
2017-11-28T00:56:34.241Z,57.20
2017-11-28T00:59:02.542Z,57.50
2017-11-28T01:01:30.826Z,57.60
2017-11-28T01:03:59.131Z,57.50
2017-11-28T01:06:27.720Z,57.60
2017-11-28T01:08:56.011Z,57.70
2017-11-28T01:11:24.649Z,57.50
2017-11-28T01:13:53.392Z,58.20
2017-11-28T01:16:21.200Z,57.90
2017-11-28T01:18:49.370Z,58.30
2017-11-28T01:21:17.843Z,58.60
2017-11-28T01:23:45.853Z,58.60
2017-11-28T01:26:14.162Z,58.60
2017-11-28T01:28:43.198Z,59.10
2017-11-28T01:31:11.139Z,58.50
2017-11-28T01:33:40.566Z,59.00
2017-11-28T01:36:08.868Z,58.50
2017-11-28T01:38:36.390Z,58.90
2017-11-28T01:41:04.696Z,59.20
2017-11-28T01:43:32.624Z,59.30
2017-11-28T01:46:00.936Z,59.10
2017-11-28T01:48:29.215Z,59.30
2017-11-28T01:50:56.748Z,59.20
2017-11-28T01:53:24.664Z,59.10
2017-11-28T01:55:52.963Z,59.10
2017-11-28T01:58:21.487Z,59.00
2017-11-28T02:00:49.796Z,59.20
2017-11-28T02:03:18.288Z,59.10
2017-11-28T02:05:46.463Z,59.00
2017-11-28T02:08:14.742Z,59.20
2017-11-28T02:10:43.224Z,58.70
2017-11-28T02:13:11.498Z,58.70
2017-11-28T02:15:39.805Z,59.00
2017-11-28T02:18:08.087Z,59.00
2017-11-28T02:20:36.587Z,59.20
2017-11-28T02:23:05.300Z,58.70
2017-11-28T02:25:33.241Z,58.40
2017-11-28T02:28:01.523Z,58.60
2017-11-28T02:30:29.865Z,58.60
2017-11-28T02:32:58.468Z,58.20
2017-11-28T02:35:26.715Z,58.30
2017-11-28T02:37:54.994Z,58.40
2017-11-28T02:40:34.986Z,58.20
2017-11-28T02:43:02.492Z,58.10
2017-11-28T02:45:30.804Z,58.20
2017-11-28T02:47:58.613Z,58.10
2017-11-28T02:50:26.526Z,57.90
2017-11-28T02:52:54.459Z,57.70
2017-11-28T02:55:23.024Z,57.60
2017-11-28T02:57:52.042Z,57.20
2017-11-28T03:00:19.971Z,57.20
2017-11-28T03:02:48.763Z,57.10
2017-11-28T03:05:17.059Z,57.10
2017-11-28T03:07:48.859Z,57.70
2017-11-28T03:10:38.336Z,56.70
2017-11-28T03:13:06.265Z,56.50
2017-11-28T03:15:35.405Z,56.40
2017-11-28T03:18:15.771Z,55.80
2017-11-28T03:20:46.752Z,55.50
2017-11-28T03:26:20.371Z,55.30
2017-11-28T03:28:50.384Z,55.50
2017-11-28T03:31:20.600Z,55.80
2017-11-28T03:33:54.972Z,56.50
2017-11-28T03:36:22.507Z,56.60
2017-11-28T03:38:50.796Z,56.90
2017-11-28T03:41:19.202Z,56.40
2017-11-28T03:43:47.498Z,56.50
2017-11-28T03:46:17.583Z,56.40
2017-11-28T03:48:47.126Z,55.80
2017-11-28T03:51:15.039Z,56.00
2017-11-28T03:53:43.343Z,56.30
2017-11-28T03:56:10.871Z,56.30
2017-11-28T03:58:38.803Z,56.60
2017-11-28T04:01:07.115Z,56.70
2017-11-28T04:03:35.414Z,56.70
2017-11-28T04:06:03.697Z,56.30
2017-11-28T04:08:32.953Z,55.80
2017-11-28T04:11:00.474Z,55.80
2017-11-28T04:13:28.777Z,56.00
2017-11-28T04:15:57.073Z,55.60
2017-11-28T04:18:24.622Z,55.80
2017-11-28T04:20:52.763Z,55.90
2017-11-28T04:23:21.063Z,55.80
2017-11-28T04:25:49.349Z,56.10
2017-11-28T04:28:17.649Z,55.90
2017-11-28T04:30:45.972Z,56.40
2017-11-28T04:33:14.274Z,56.80
2017-11-28T04:35:43.275Z,56.90
2017-11-28T04:38:10.910Z,56.90
2017-11-28T04:40:39.211Z,56.70
2017-11-28T04:43:07.510Z,56.90
2017-11-28T04:45:35.036Z,56.70
2017-11-28T04:48:02.963Z,56.60
2017-11-28T04:50:31.243Z,56.40
2017-11-28T04:52:59.552Z,56.10
2017-11-28T04:55:27.834Z,56.10
2017-11-28T04:57:56.136Z,56.90
2017-11-28T05:00:23.675Z,56.80
2017-11-28T05:02:51.679Z,56.80
2017-11-28T05:05:20.308Z,57.00
2017-11-28T05:07:49.092Z,57.10
2017-11-28T05:10:16.637Z,57.50
2017-11-28T05:12:44.997Z,57.30
2017-11-28T05:15:13.307Z,57.00
2017-11-28T05:17:41.606Z,56.90
2017-11-28T05:20:09.932Z,57.30
2017-11-28T05:22:38.263Z,57.10
2017-11-28T05:25:07.468Z,57.20
2017-11-28T05:27:34.999Z,57.00
2017-11-28T05:30:03.345Z,57.10
2017-11-28T05:32:31.642Z,57.50
2017-11-28T05:34:59.935Z,57.80
2017-11-28T05:37:28.336Z,58.00
2017-11-28T05:39:56.688Z,58.00
2017-11-28T05:42:25.652Z,58.00
2017-11-28T05:44:53.587Z,57.30
2017-11-28T05:47:21.896Z,57.60
2017-11-28T05:49:51.154Z,58.00
2017-11-28T05:52:18.685Z,58.00
2017-11-28T05:54:47.195Z,57.40
2017-11-28T05:57:15.128Z,57.30
2017-11-28T05:59:43.743Z,57.60
2017-11-28T06:02:11.667Z,58.00
2017-11-28T06:04:39.203Z,57.90
2017-11-28T06:07:07.128Z,58.00
2017-11-28T06:09:35.501Z,58.00
2017-11-28T06:12:04.704Z,57.80
2017-11-28T06:14:32.566Z,57.70
2017-11-28T06:17:00.486Z,57.80
2017-11-28T06:19:28.919Z,57.30
2017-11-28T06:21:57.866Z,57.40
2017-11-28T06:24:26.108Z,57.80
2017-11-28T06:26:54.028Z,57.80
2017-11-28T06:29:22.338Z,58.00
2017-11-28T06:31:50.629Z,57.60
2017-11-28T06:34:18.953Z,58.00
2017-11-28T06:36:47.261Z,57.90
2017-11-28T06:39:15.688Z,57.60
2017-11-28T06:41:44.925Z,57.60
2017-11-28T06:44:12.457Z,58.00
2017-11-28T06:46:43.316Z,58.10
2017-11-28T06:49:11.611Z,58.50
2017-11-28T06:51:39.972Z,58.70
2017-11-28T06:54:08.280Z,58.50
2017-11-28T06:56:36.695Z,58.90
2017-11-28T06:59:04.995Z,58.50
2017-11-28T07:01:33.308Z,58.40
2017-11-28T07:04:00.839Z,58.40
2017-11-28T07:06:29.558Z,58.60
2017-11-28T07:08:57.084Z,58.60
2017-11-28T07:11:25.811Z,58.60
2017-11-28T07:13:54.889Z,58.50
2017-11-28T07:16:22.735Z,58.80
2017-11-28T07:18:51.183Z,59.10
2017-11-28T07:21:19.872Z,59.60
2017-11-28T07:23:47.389Z,59.20
2017-11-28T07:26:15.709Z,59.30
2017-11-28T07:28:44.253Z,59.50
2017-11-28T07:31:12.782Z,59.20
2017-11-28T07:33:41.186Z,59.30
2017-11-28T07:36:08.727Z,59.40
2017-11-28T07:38:37.040Z,59.50
2017-11-28T07:41:04.580Z,59.60
2017-11-28T07:43:32.554Z,59.60
2017-11-28T07:46:00.854Z,59.60
2017-11-28T07:48:30.940Z,59.60
2017-11-28T07:50:58.886Z,59.70
2017-11-28T07:53:26.443Z,60.00
2017-11-28T07:55:57.344Z,60.10
2017-11-28T07:58:25.276Z,60.20
2017-11-28T08:00:54.344Z,59.90
2017-11-28T08:03:22.199Z,59.90
2017-11-28T08:05:51.216Z,60.10
2017-11-28T08:08:18.894Z,59.80
2017-11-28T08:10:48.047Z,60.10
2017-11-28T08:13:16.050Z,60.00
2017-11-28T08:15:44.010Z,60.10
2017-11-28T08:18:12.324Z,60.20
2017-11-28T08:20:40.984Z,60.20
2017-11-28T08:23:08.967Z,60.40
2017-11-28T08:25:37.252Z,60.50
2017-11-28T08:28:05.564Z,60.40
2017-11-28T08:30:33.839Z,59.50
2017-11-28T08:33:02.370Z,59.50
2017-11-28T08:35:31.127Z,61.50
2017-11-28T08:37:59.063Z,60.50
2017-11-28T08:40:28.520Z,59.60
2017-11-28T08:42:57.741Z,57.00
2017-11-28T08:45:26.728Z,55.40
2017-11-28T08:47:55.368Z,55.30
2017-11-28T08:50:23.693Z,54.90
2017-11-28T08:52:53.343Z,52.80
2017-11-28T08:55:22.527Z,53.90
2017-11-28T08:57:50.075Z,55.70
2017-11-28T09:00:18.385Z,56.70
2017-11-28T09:02:46.706Z,57.80
2017-11-28T09:05:14.988Z,58.50
2017-11-28T09:07:43.437Z,59.40
2017-11-28T09:10:11.735Z,59.90
2017-11-28T09:12:40.215Z,60.30
2017-11-28T09:15:09.638Z,60.50
2017-11-28T09:17:37.240Z,60.40
2017-11-28T09:20:05.577Z,60.40
2017-11-28T09:22:33.506Z,60.20
2017-11-28T09:25:02.030Z,60.50
2017-11-28T09:27:30.304Z,60.30
2017-11-28T09:29:58.603Z,60.40
2017-11-28T09:32:27.113Z,60.20
2017-11-28T09:34:55.075Z,60.00
2017-11-28T09:37:24.966Z,60.30
2017-11-28T09:39:53.268Z,60.30
2017-11-28T09:42:22.291Z,60.80
2017-11-28T09:44:49.825Z,59.80
2017-11-28T09:47:17.355Z,59.80
2017-11-28T09:49:45.287Z,59.70
2017-11-28T09:52:13.583Z,59.70
2017-11-28T09:54:41.895Z,59.10
2017-11-28T09:57:10.589Z,59.50
2017-11-28T09:59:39.243Z,59.30
2017-11-28T10:02:07.155Z,59.10
2017-11-28T10:04:36.200Z,59.00
2017-11-28T10:07:03.756Z,58.50
2017-11-28T10:09:32.463Z,58.10
2017-11-28T10:12:00.378Z,57.70
2017-11-28T10:14:28.760Z,58.10
2017-11-28T10:16:58.815Z,58.20
2017-11-28T10:19:27.105Z,58.20
2017-11-28T10:21:55.396Z,58.70
2017-11-28T10:24:23.698Z,58.40
2017-11-28T10:26:52.544Z,57.10
2017-11-28T10:29:21.501Z,57.60
2017-11-28T10:31:49.303Z,58.30
2017-11-28T10:34:17.630Z,58.40
2017-11-28T10:36:46.316Z,59.30
2017-11-28T10:39:13.863Z,59.10
2017-11-28T10:41:41.902Z,59.30
2017-11-28T10:44:10.354Z,59.60
2017-11-28T10:46:39.187Z,58.80
2017-11-28T10:49:07.989Z,58.20
2017-11-28T10:51:35.521Z,59.00
2017-11-28T10:54:03.830Z,59.50
2017-11-28T10:56:32.137Z,60.00
2017-11-28T10:59:00.416Z,59.50
2017-11-28T11:01:28.735Z,59.90
2017-11-28T11:03:57.041Z,60.00
2017-11-28T11:06:25.365Z,59.70
2017-11-28T11:08:54.647Z,59.50
2017-11-28T11:11:22.182Z,58.10
2017-11-28T11:13:50.469Z,57.40
2017-11-28T11:16:19.368Z,57.00
2017-11-28T11:18:47.286Z,57.50
2017-11-28T11:21:15.598Z,56.70
2017-11-28T11:23:43.910Z,57.50
2017-11-28T11:26:12.216Z,57.70
2017-11-28T11:28:40.502Z,57.30
2017-11-28T11:31:08.832Z,57.10
2017-11-28T11:33:38.046Z,56.80
2017-11-28T11:36:06.347Z,57.20
2017-11-28T11:38:34.122Z,56.50
2017-11-28T11:41:02.436Z,57.00
2017-11-28T11:43:30.734Z,57.10
2017-11-28T11:45:59.809Z,56.50
2017-11-28T11:48:27.352Z,57.40
2017-11-28T11:50:56.317Z,57.70
2017-11-28T11:53:23.852Z,56.80
2017-11-28T11:55:52.585Z,56.30
2017-11-28T11:58:20.875Z,55.40
2017-11-28T12:00:49.412Z,56.20
2017-11-28T12:03:17.659Z,56.30
2017-11-28T12:05:45.580Z,56.90
2017-11-28T12:08:13.880Z,58.00
2017-11-28T12:10:42.317Z,57.30
2017-11-28T12:13:09.949Z,57.40
2017-11-28T12:15:38.940Z,57.10
2017-11-28T12:18:06.471Z,56.60
2017-11-28T12:20:35.023Z,55.70
2017-11-28T12:23:03.556Z,56.20
2017-11-28T12:25:31.096Z,56.10
2017-11-28T12:27:59.410Z,55.70
2017-11-28T12:30:27.778Z,55.30
2017-11-28T12:32:56.828Z,55.80
2017-11-28T12:35:24.346Z,55.40
2017-11-28T12:37:52.879Z,54.90
2017-11-28T12:40:21.684Z,55.10
2017-11-28T12:42:50.160Z,54.70
2017-11-28T12:45:18.475Z,54.50
2017-11-28T12:47:46.407Z,55.30
2017-11-28T12:50:14.687Z,54.90
2017-11-28T12:52:42.992Z,55.90
2017-11-28T12:55:11.291Z,56.00
2017-11-28T12:57:39.584Z,55.50
2017-11-28T13:00:08.144Z,55.50
2017-11-28T13:02:37.756Z,56.10
2017-11-28T13:05:06.065Z,56.70
2017-11-28T13:07:34.358Z,56.40
2017-11-28T13:10:02.651Z,56.30
2017-11-28T13:12:30.975Z,56.50
2017-11-28T13:14:59.291Z,55.80
2017-11-28T13:17:27.620Z,56.30
2017-11-28T13:19:55.156Z,55.60
2017-11-28T13:22:23.976Z,55.40
2017-11-28T13:24:52.431Z,55.10
2017-11-28T13:27:19.974Z,55.50
2017-11-28T13:29:48.255Z,55.60
2017-11-28T13:32:16.552Z,55.60
2017-11-28T13:34:45.918Z,56.40
2017-11-28T13:37:13.907Z,56.40
2017-11-28T13:39:41.451Z,56.30
2017-11-28T13:42:09.740Z,55.90
2017-11-28T13:44:38.060Z,55.60
2017-11-28T13:47:06.348Z,55.30
2017-11-28T13:49:34.890Z,56.00
2017-11-28T13:52:03.498Z,55.80
2017-11-28T13:54:31.432Z,55.80
2017-11-28T13:57:00.868Z,56.50
2017-11-28T13:59:28.419Z,55.80
2017-11-28T14:01:56.694Z,55.10
2017-11-28T14:04:25.296Z,55.10
2017-11-28T14:06:53.209Z,55.90
2017-11-28T14:09:20.743Z,56.60
2017-11-28T14:11:48.759Z,56.10
2017-11-28T14:14:17.103Z,55.80
2017-11-28T14:16:45.394Z,55.90
2017-11-28T14:19:13.711Z,55.70
2017-11-28T14:21:57.686Z,56.00
2017-11-28T14:24:30.419Z,55.80
2017-11-28T14:27:03.702Z,55.70
2017-11-28T14:29:34.380Z,55.30
2017-11-28T14:32:02.890Z,55.50
2017-11-28T14:34:31.351Z,55.60
2017-11-28T14:37:03.140Z,56.70
2017-11-28T14:39:31.448Z,57.60
2017-11-28T14:42:14.360Z,57.90
2017-11-28T14:44:46.315Z,57.70
2017-11-28T14:47:14.418Z,58.10
2017-11-28T14:49:43.251Z,57.50
2017-11-28T14:52:10.774Z,57.20
2017-11-28T14:54:45.275Z,56.90
2017-11-28T14:57:23.469Z,57.20
2017-11-28T14:59:57.275Z,57.50
2017-11-28T15:02:39.846Z,57.80
2017-11-28T15:05:13.087Z,58.60
2017-11-28T15:07:46.723Z,58.20
2017-11-28T15:10:19.503Z,58.30
2017-11-28T15:13:09.613Z,57.80
2017-11-28T15:15:58.611Z,57.80
2017-11-28T15:18:42.686Z,57.70
2017-11-28T15:21:11.364Z,57.80
2017-11-28T15:23:40.517Z,58.40
2017-11-28T15:26:14.093Z,57.90
2017-11-28T15:28:44.209Z,57.60
2017-11-28T15:31:12.131Z,59.10
2017-11-28T15:33:40.418Z,58.60
2017-11-28T15:36:08.363Z,58.20
2017-11-28T15:38:37.571Z,58.30
2017-11-28T15:41:06.343Z,58.30
2017-11-28T15:43:34.632Z,58.60
2017-11-28T15:46:02.174Z,58.10
2017-11-28T15:48:29.702Z,58.10
2017-11-28T15:50:57.626Z,68.30
2017-11-28T15:53:26.003Z,60.10
2017-11-28T15:55:54.446Z,55.10
2017-11-28T15:58:23.073Z,52.30
2017-11-28T16:00:51.833Z,50.30
2017-11-28T16:03:19.355Z,49.00
2017-11-28T16:05:47.712Z,48.00
2017-11-28T16:08:16.420Z,47.80
2017-11-28T16:10:45.158Z,48.20
2017-11-28T16:13:13.444Z,50.20
2017-11-28T16:15:41.762Z,52.20
2017-11-28T16:18:09.291Z,53.10
2017-11-28T16:20:36.833Z,54.60
2017-11-28T16:23:04.771Z,57.30
2017-11-28T16:25:33.229Z,58.10
2017-11-28T16:28:02.619Z,58.80
2017-11-28T16:30:30.152Z,60.10
2017-11-28T16:32:58.083Z,59.80
2017-11-28T16:35:27.346Z,59.30
2017-11-28T16:37:56.586Z,59.80
2017-11-28T16:40:24.511Z,61.30
2017-11-28T16:42:52.814Z,62.20
2017-11-28T16:45:21.906Z,62.60
2017-11-28T16:47:50.725Z,62.10
2017-11-28T16:50:18.279Z,61.30
2017-11-28T16:52:46.224Z,62.50
2017-11-28T16:55:14.608Z,62.90
2017-11-28T16:57:42.916Z,62.20
2017-11-28T17:00:11.214Z,62.10
2017-11-28T17:02:39.541Z,62.20
2017-11-28T17:05:07.837Z,62.70
2017-11-28T17:07:36.153Z,63.90
2017-11-28T17:10:03.701Z,64.10
2017-11-28T17:12:31.623Z,64.00
2017-11-28T17:15:00.364Z,63.00
2017-11-28T17:17:29.732Z,62.00
2017-11-28T17:19:59.242Z,61.80
2017-11-28T17:22:26.779Z,61.60
2017-11-28T17:24:54.697Z,62.00
2017-11-28T17:27:23.026Z,62.90
2017-11-28T17:29:51.328Z,62.00
2017-11-28T17:32:20.171Z,61.90
2017-11-28T17:34:48.076Z,61.50
2017-11-28T17:37:16.537Z,61.70
2017-11-28T17:39:44.838Z,61.30
2017-11-28T17:42:13.151Z,60.80
2017-11-28T17:44:41.444Z,60.60
2017-11-28T17:47:09.756Z,61.10
2017-11-28T17:49:38.073Z,61.40
2017-11-28T17:52:07.170Z,61.50
2017-11-28T17:54:34.825Z,61.50
2017-11-28T17:57:03.135Z,61.20
2017-11-28T17:59:32.155Z,61.00
2017-11-28T18:01:59.704Z,61.20
2017-11-28T18:04:27.993Z,60.50
2017-11-28T18:06:56.295Z,59.70
2017-11-28T18:09:23.865Z,59.80
2017-11-28T18:11:51.452Z,60.60
2017-11-28T18:14:19.888Z,60.30
2017-11-28T18:16:47.411Z,60.40
2017-11-28T18:19:15.735Z,60.20
2017-11-28T18:21:44.090Z,61.00
2017-11-28T18:24:12.391Z,61.60
2017-11-28T18:26:41.281Z,61.70
2017-11-28T18:29:09.228Z,61.90
2017-11-28T18:31:36.758Z,62.10
2017-11-28T18:34:07.675Z,59.30
2017-11-28T18:36:37.111Z,61.60
2017-11-28T18:39:04.675Z,61.60
2017-11-28T18:41:33.085Z,62.30
2017-11-28T18:44:04.454Z,61.60
2017-11-28T18:46:32.492Z,60.90
2017-11-28T18:49:00.796Z,61.00
2017-11-28T18:51:29.900Z,62.30
2017-11-28T18:53:58.016Z,60.60
2017-11-28T18:56:26.987Z,60.70
2017-11-28T18:58:55.358Z,61.00
2017-11-28T19:01:23.812Z,61.10
2017-11-28T19:03:51.985Z,61.00
2017-11-28T19:06:19.505Z,60.90
2017-11-28T19:08:48.153Z,61.10
2017-11-28T19:11:16.115Z,61.30
2017-11-28T19:13:44.428Z,61.90
2017-11-28T19:16:12.771Z,62.00
2017-11-28T19:18:41.530Z,62.10
2017-11-28T19:21:10.185Z,62.20
2017-11-28T19:23:38.162Z,62.20
2017-11-28T19:26:06.087Z,62.00
2017-11-28T19:28:34.466Z,63.00
2017-11-28T19:31:02.752Z,62.80
2017-11-28T19:33:30.264Z,62.20
2017-11-28T19:35:58.211Z,62.30
2017-11-28T19:38:26.150Z,62.20
2017-11-28T19:40:54.598Z,62.90
2017-11-28T19:43:22.125Z,62.80
2017-11-28T19:45:54.200Z,63.20
2017-11-28T19:48:22.488Z,63.90
2017-11-28T19:50:50.017Z,63.40
2017-11-28T19:53:19.037Z,63.20
2017-11-28T19:55:47.431Z,61.90
2017-11-28T19:58:14.957Z,62.60
2017-11-28T20:00:44.099Z,62.00
2017-11-28T20:03:11.695Z,60.30
2017-11-28T20:05:39.991Z,60.40
2017-11-28T20:08:08.278Z,59.80
2017-11-28T20:10:36.594Z,60.00
2017-11-28T20:13:04.887Z,60.80
2017-11-28T20:15:34.743Z,62.40
2017-11-28T20:18:03.031Z,62.80
2017-11-28T20:20:31.347Z,62.60
2017-11-28T20:23:00.828Z,61.90
2017-11-28T20:25:28.408Z,61.10
2017-11-28T20:27:56.335Z,61.00
2017-11-28T20:30:24.762Z,61.40
2017-11-28T20:32:53.069Z,61.10
2017-11-28T20:35:22.175Z,62.10
2017-11-28T20:37:49.932Z,61.40
2017-11-28T20:40:19.099Z,61.10
2017-11-28T20:42:46.611Z,61.60
2017-11-28T20:45:15.908Z,61.80
2017-11-28T20:47:44.196Z,61.80
2017-11-28T20:50:12.510Z,61.50
2017-11-28T20:52:40.063Z,61.00
2017-11-28T20:55:08.371Z,61.50
2017-11-28T20:57:36.679Z,61.90
2017-11-28T21:00:05.987Z,62.40
2017-11-28T21:02:33.612Z,62.50
2017-11-28T21:05:02.348Z,62.50
2017-11-28T21:07:29.898Z,61.60
2017-11-28T21:09:58.786Z,60.90
2017-11-28T21:12:26.694Z,60.70
2017-11-28T21:14:54.998Z,61.20
2017-11-28T21:17:23.322Z,61.20
2017-11-28T21:19:51.605Z,62.10
2017-11-28T21:22:19.914Z,61.90
2017-11-28T21:24:48.609Z,62.10
2017-11-28T21:27:17.072Z,62.20
2017-11-28T21:29:44.992Z,62.40
2017-11-28T21:32:13.802Z,62.80
2017-11-28T21:34:41.716Z,62.80
2017-11-28T21:37:10.092Z,63.10
2017-11-28T21:39:38.876Z,63.10
2017-11-28T21:42:08.331Z,63.70
2017-11-28T21:44:36.653Z,62.90
2017-11-28T21:47:04.983Z,63.10
2017-11-28T21:49:34.017Z,63.80
2017-11-28T21:52:02.192Z,62.80
2017-11-28T21:54:30.132Z,62.50
2017-11-28T21:56:58.796Z,62.50
2017-11-28T21:59:26.702Z,62.40
2017-11-28T22:01:55.012Z,62.40
2017-11-28T22:04:23.294Z,62.50
2017-11-28T22:06:51.608Z,62.50
2017-11-28T22:09:19.274Z,62.00
2017-11-28T22:11:48.553Z,62.20
2017-11-28T22:14:16.851Z,62.10
2017-11-28T22:16:45.380Z,61.80
2017-11-28T22:19:14.618Z,61.90
2017-11-28T22:21:42.547Z,62.30
2017-11-28T22:24:10.074Z,62.80
2017-11-28T22:26:38.405Z,63.30
2017-11-28T22:29:06.392Z,63.30
2017-11-28T22:31:34.301Z,62.90
2017-11-28T22:34:02.237Z,63.20
2017-11-28T22:36:30.529Z,63.40
2017-11-28T22:38:59.572Z,64.20
2017-11-28T22:41:27.865Z,63.30
2017-11-28T22:43:55.944Z,63.50
2017-11-28T22:46:24.535Z,63.80
2017-11-28T22:48:52.470Z,63.90
2017-11-28T22:51:20.753Z,63.70
2017-11-28T22:53:49.135Z,63.40
2017-11-28T22:56:17.527Z,63.60
2017-11-28T22:58:46.434Z,63.50
2017-11-28T23:01:14.570Z,63.80
2017-11-28T23:03:42.498Z,63.90
2017-11-28T23:06:10.781Z,63.80
2017-11-28T23:08:40.054Z,64.20
2017-11-28T23:11:07.586Z,64.20
2017-11-28T23:13:47.739Z,64.10
2017-11-28T23:16:15.281Z,63.70
2017-11-28T23:18:43.593Z,63.80
2017-11-28T23:21:12.838Z,63.90
2017-11-28T23:23:40.407Z,63.70
2017-11-28T23:26:08.689Z,63.50
2017-11-28T23:28:36.986Z,63.70
2017-11-28T23:31:05.264Z,63.90
2017-11-28T23:33:33.556Z,63.80
2017-11-28T23:36:02.659Z,63.80
2017-11-28T23:38:30.205Z,63.90
2017-11-28T23:40:57.732Z,63.80
2017-11-28T23:43:26.363Z,64.00
2017-11-28T23:45:55.141Z,64.80
2017-11-28T23:48:23.607Z,65.30
2017-11-28T23:50:51.134Z,66.20
2017-11-28T23:53:20.063Z,66.20
2017-11-28T23:55:47.970Z,65.40
2017-11-28T23:58:16.283Z,65.40
